createdAt,value
2023-01-12T00:03:22.861Z,14.95
2023-01-12T00:08:26.363Z,12.23
2023-01-12T00:13:31.281Z,11.45
2023-01-12T00:18:34.733Z,13.02
2023-01-12T00:23:38.891Z,12.10
2023-01-12T00:28:42.257Z,12.68
2023-01-12T00:43:51.857Z,13.70
2023-01-12T00:48:55.393Z,16.13
2023-01-12T00:53:58.691Z,14.30
2023-01-12T00:59:02.201Z,15.48
2023-01-12T01:04:05.735Z,13.00
2023-01-12T01:09:09.568Z,12.77
2023-01-12T01:14:13.210Z,15.80
2023-01-12T01:19:17.153Z,10.73
2023-01-12T01:24:20.500Z,13.05
2023-01-12T01:34:27.053Z,13.43
2023-01-12T01:39:30.700Z,13.18
2023-01-12T01:44:34.025Z,15.85
2023-01-12T01:54:58.422Z,12.63
2023-01-12T02:00:03.725Z,12.15
2023-01-12T02:05:09.517Z,15.98
2023-01-12T02:10:13.277Z,12.38
2023-01-12T02:15:16.747Z,12.18
2023-01-12T02:26:18.289Z,10.65
2023-01-12T02:31:57.274Z,11.77
2023-01-12T02:37:21.730Z,13.95
2023-01-12T02:42:46.930Z,18.38
2023-01-12T02:47:59.184Z,12.75
2023-01-12T02:53:09.660Z,14.67
2023-01-12T02:58:16.941Z,13.05
2023-01-12T03:03:21.230Z,14.50
2023-01-12T03:08:27.159Z,12.63
2023-01-12T03:13:33.678Z,10.80
2023-01-12T03:18:51.484Z,12.25
2023-01-12T03:24:08.905Z,13.20
2023-01-12T03:29:12.325Z,15.35
2023-01-12T03:34:19.225Z,11.63
2023-01-12T03:39:50.555Z,11.05
2023-01-12T03:45:14.260Z,11.63
2023-01-12T03:50:23.833Z,12.27
2023-01-12T03:55:29.703Z,13.85
2023-01-12T04:00:33.298Z,11.52
2023-01-12T04:05:37.523Z,10.30
2023-01-12T04:10:41.514Z,12.50
2023-01-12T04:15:47.719Z,12.10
2023-01-12T04:20:52.096Z,11.90
2023-01-12T04:25:55.494Z,13.88
2023-01-12T04:36:02.222Z,16.42
2023-01-12T04:46:10.980Z,15.13
2023-01-12T04:51:14.277Z,17.80
2023-01-12T05:01:21.344Z,22.45
2023-01-12T05:06:25.056Z,12.88
2023-01-12T05:11:29.576Z,13.80
2023-01-12T05:16:33.047Z,15.07
2023-01-12T05:21:39.554Z,15.98
2023-01-12T05:26:44.668Z,13.90
2023-01-12T05:31:47.971Z,13.90
2023-01-12T05:36:52.814Z,17.60
2023-01-12T05:41:56.397Z,13.50
2023-01-12T05:46:59.995Z,18.35
2023-01-12T05:52:03.433Z,17.40
2023-01-12T05:57:06.850Z,17.10
2023-01-12T06:02:11.782Z,17.88
2023-01-12T06:07:16.551Z,15.23
2023-01-12T06:12:20.379Z,16.23
2023-01-12T06:17:23.799Z,15.27
2023-01-12T06:27:32.389Z,13.20
2023-01-12T06:32:36.202Z,18.33
2023-01-12T06:37:39.956Z,20.40
2023-01-12T06:42:43.522Z,18.85
2023-01-12T06:47:50.031Z,19.05
2023-01-12T06:52:53.390Z,15.32
2023-01-12T07:03:00.291Z,13.77
2023-01-12T07:08:04.421Z,16.20
2023-01-12T07:13:08.071Z,15.13
2023-01-12T07:18:11.692Z,17.85
2023-01-12T07:23:15.275Z,15.40
2023-01-12T07:28:19.592Z,17.05
2023-01-12T07:38:27.711Z,14.48
2023-01-12T07:43:31.761Z,13.38
2023-01-12T07:48:35.136Z,12.88
2023-01-12T07:53:38.768Z,11.95
2023-01-12T07:58:43.705Z,14.70
2023-01-12T08:03:48.291Z,12.52
2023-01-12T08:08:54.244Z,12.50
2023-01-12T08:13:58.658Z,13.63
2023-01-12T08:19:08.387Z,13.25
2023-01-12T08:24:17.829Z,13.25
2023-01-12T08:29:44.220Z,12.70
2023-01-12T08:34:51.573Z,14.02
2023-01-12T08:39:55.598Z,15.00
2023-01-12T08:44:59.158Z,10.23
2023-01-12T08:50:04.525Z,18.05
2023-01-12T08:55:10.098Z,19.27
2023-01-12T09:00:14.134Z,10.93
2023-01-12T09:05:20.599Z,11.45
2023-01-12T09:10:24.874Z,12.85
2023-01-12T09:15:28.657Z,13.15
2023-01-12T09:25:35.719Z,17.80
2023-01-12T09:45:48.943Z,14.27
2023-01-12T09:51:10.489Z,11.40
2023-01-12T09:56:45.674Z,12.90
2023-01-12T10:01:53.765Z,16.48
2023-01-12T10:06:57.280Z,10.48
2023-01-12T10:12:19.787Z,12.25
2023-01-12T10:17:23.604Z,10.98
2023-01-12T10:27:41.164Z,8.70
2023-01-12T10:32:45.018Z,10.52
2023-01-12T10:37:55.074Z,10.50
2023-01-12T10:43:06.681Z,11.35
2023-01-12T10:48:20.861Z,12.35
2023-01-12T10:53:48.028Z,14.90
2023-01-12T10:59:02.465Z,11.80
2023-01-12T11:04:06.051Z,12.75
2023-01-12T11:09:40.705Z,15.15
2023-01-12T11:15:02.202Z,15.30
2023-01-12T11:20:18.699Z,21.83
2023-01-12T11:25:25.049Z,17.27
2023-01-12T11:30:40.616Z,17.05
2023-01-12T11:36:06.826Z,17.30
2023-01-12T11:41:21.987Z,19.52
2023-01-12T11:46:48.446Z,26.52
2023-01-12T11:51:56.734Z,21.20
2023-01-12T11:57:40.378Z,21.48
2023-01-12T12:02:59.058Z,21.40
2023-01-12T12:08:35.554Z,20.83
2023-01-12T12:14:11.754Z,24.75
2023-01-12T12:19:39.971Z,19.35
2023-01-12T12:25:05.887Z,23.65
2023-01-12T12:30:34.677Z,21.60
2023-01-12T12:35:41.552Z,21.92
2023-01-12T12:40:55.078Z,18.45
2023-01-12T12:46:19.573Z,17.60
2023-01-12T12:51:24.322Z,17.88
2023-01-12T12:56:29.805Z,18.83
2023-01-12T13:01:34.512Z,21.33
2023-01-12T13:06:48.710Z,16.45
2023-01-12T13:11:52.154Z,23.25
2023-01-12T13:17:00.267Z,16.98
2023-01-12T13:22:40.909Z,18.10
2023-01-12T13:27:52.077Z,20.30
2023-01-12T13:32:55.494Z,20.35
2023-01-12T13:43:34.934Z,16.52
2023-01-12T13:48:44.111Z,14.90
2023-01-12T13:54:05.235Z,16.00
2023-01-12T13:59:18.090Z,20.38
2023-01-12T14:04:48.579Z,14.65
2023-01-12T14:10:01.180Z,11.60
2023-01-12T14:15:25.560Z,9.13
2023-01-12T14:20:30.613Z,8.27
2023-01-12T14:25:34.011Z,9.05
2023-01-12T14:35:52.753Z,7.93
2023-01-12T14:41:20.969Z,3.80
2023-01-12T14:46:30.142Z,5.45
2023-01-12T14:51:35.552Z,12.20
2023-01-12T14:56:50.067Z,6.80
2023-01-12T15:01:53.771Z,11.07
2023-01-12T15:07:04.006Z,7.93
2023-01-12T15:12:42.028Z,6.40
2023-01-12T15:17:46.248Z,11.48
2023-01-12T15:22:50.471Z,27.92
2023-01-12T15:27:54.074Z,24.42
2023-01-12T15:33:00.057Z,21.45
2023-01-12T15:38:05.388Z,27.15
2023-01-12T15:43:17.197Z,22.92
2023-01-12T15:48:20.959Z,19.48
2023-01-12T15:53:24.727Z,20.67
2023-01-12T15:58:28.158Z,20.90
2023-01-12T16:03:57.611Z,19.77
2023-01-12T16:08:55.500Z,15.73
2023-01-12T16:13:59.687Z,10.15
2023-01-12T16:19:03.654Z,9.60
2023-01-12T16:24:07.293Z,10.05
2023-01-12T16:29:11.119Z,8.77
2023-01-12T16:34:14.691Z,6.20
2023-01-12T16:39:19.592Z,10.82
2023-01-12T16:44:24.429Z,9.43
2023-01-12T16:49:27.937Z,6.78
2023-01-12T16:54:32.327Z,8.18
2023-01-12T16:59:40.991Z,7.05
2023-01-12T17:04:46.284Z,9.77
2023-01-12T17:09:49.897Z,10.07
2023-01-12T17:14:56.747Z,13.13
2023-01-12T17:20:01.263Z,10.98
2023-01-12T17:25:07.618Z,11.93
2023-01-12T17:30:11.696Z,15.23
2023-01-12T17:35:16.712Z,8.30
2023-01-12T17:40:22.468Z,8.70
2023-01-12T17:45:28.202Z,15.02
2023-01-12T17:50:32.340Z,9.05
2023-01-12T17:55:47.607Z,10.35
2023-01-12T18:00:52.309Z,7.95
2023-01-12T18:06:03.102Z,13.02
2023-01-12T18:11:09.313Z,14.18
2023-01-12T18:16:16.631Z,18.85
2023-01-12T18:21:27.501Z,10.48
2023-01-12T18:26:33.491Z,15.43
2023-01-12T18:31:37.371Z,20.23
2023-01-12T18:36:42.055Z,28.15
2023-01-12T18:41:46.407Z,26.42
2023-01-12T18:46:50.152Z,33.75
2023-01-12T18:51:53.894Z,29.60
2023-01-12T18:56:57.474Z,29.60
2023-01-12T19:07:11.439Z,26.27
2023-01-12T19:12:14.959Z,21.77
2023-01-12T19:17:19.254Z,23.35
2023-01-12T19:22:22.792Z,23.02
2023-01-12T19:27:26.552Z,25.55
2023-01-12T19:32:31.561Z,26.65
2023-01-12T19:42:38.359Z,15.93
2023-01-12T19:47:44.944Z,16.85
2023-01-12T19:52:48.383Z,14.50
2023-01-12T19:57:53.266Z,20.48
2023-01-12T20:02:58.433Z,11.27
2023-01-12T20:08:02.444Z,17.60
2023-01-12T20:18:09.869Z,6.97
2023-01-12T20:23:15.113Z,13.18
2023-01-12T20:28:18.595Z,15.18
2023-01-12T20:33:22.981Z,14.85
2023-01-12T20:38:26.623Z,19.08
2023-01-12T20:43:30.087Z,19.05
2023-01-12T20:48:34.478Z,12.45
2023-01-12T20:53:43.105Z,15.52
2023-01-12T20:58:52.713Z,12.77
2023-01-12T21:04:00.451Z,9.63
2023-01-12T21:09:05.393Z,11.32
2023-01-12T21:14:10.333Z,8.88
2023-01-12T21:19:13.923Z,8.57
2023-01-12T21:24:17.399Z,13.05
2023-01-12T21:29:21.770Z,14.55
2023-01-12T21:34:25.291Z,11.65
2023-01-12T21:39:28.673Z,10.95
2023-01-12T21:44:33.351Z,13.70
2023-01-12T21:54:39.722Z,12.45
2023-01-12T21:59:43.212Z,13.93
2023-01-12T22:04:47.103Z,20.38
2023-01-12T22:09:51.543Z,12.95
2023-01-12T22:14:55.126Z,15.20
2023-01-12T22:19:58.810Z,12.63
2023-01-12T22:25:02.266Z,14.05
2023-01-12T22:30:06.661Z,16.23
2023-01-12T22:35:11.006Z,19.00
2023-01-12T22:40:15.078Z,17.10
2023-01-12T22:45:19.068Z,20.17
2023-01-12T22:50:24.132Z,22.35
2023-01-12T22:55:27.698Z,19.48
2023-01-12T23:05:36.820Z,19.50
2023-01-12T23:10:40.922Z,17.80
2023-01-12T23:15:50.511Z,22.83
2023-01-12T23:20:55.012Z,24.30
2023-01-12T23:26:06.630Z,21.63
2023-01-12T23:31:16.196Z,21.25
2023-01-12T23:36:22.102Z,11.85
2023-01-12T23:41:27.131Z,9.05
2023-01-12T23:46:33.696Z,10.00
2023-01-12T23:51:37.031Z,12.80
